KC5LIO Weather Reports


Display with metric or nautical units.
time (UTC)temp
F
wind
direction
speed
MPH
gust
MPH
rain 1hr
in
rain 24hr
in
rain mn
in
humidity
%
barometer
mb
20210926080204 56 297 1.0 2.0 0.00 0.00 0.00 99 1017.1
20210926074705 56 0 0.0 1.0 0.00 0.00 0.00 98 1017.1
20210926073205 56 0 0.0 0.0 0.00 0.00 0.00 98 1017.1
20210926071704 56 292 0.0 0.0 0.00 0.00 0.00 98 1017.3
20210926070205 56 45 0.0 1.0 0.00 0.00 0.00 98 1017.3
20210926064704 56 302 1.0 1.0 0.00 0.00 0.00 98 1017.4
20210926063205 56 292 0.0 0.0 0.00 0.00 0.00 98 1017.4
20210926061705 57 292 0.0 0.0 0.00 0.00 0.00 98 1017.5
20210926060205 57 292 0.0 0.0 0.00 0.00 0.00 98 1017.4
20210926054707 58 292 0.0 0.0 0.00 0.00 0.00 98 1017.5
20210926053208 58 292 0.0 0.0 0.00 0.00 0.00 98 1017.7
20210926051707 58 292 0.0 1.0 0.00 0.00 0.00 98 1017.6
20210926050207 58 309 0.0 1.0 0.00 0.00 0.00 98 1017.9
20210926044708 59 292 0.0 1.0 0.00 0.00 0.00 98 1017.9
20210926043207 59 289 0.0 1.0 0.00 0.00 0.00 98 1017.9
20210926041707 59 277 1.0 2.0 0.00 0.00 0.00 97 1017.9
20210926040207 59 338 0.0 1.0 0.00 0.00 0.00 96 1017.7
20210926034707 59 22 0.0 0.0 0.00 0.00 0.00 95 1017.7
20210926033207 59 11 0.0 0.0 0.00 0.00 0.00 94 1017.7
20210926031707 60 315 0.0 1.0 0.00 0.00 0.00 94 1017.5
20210926030207 60 0 1.0 1.0 0.00 0.00 0.00 92 1017.6
20210926024708 60 0 0.0 0.0 0.00 0.00 0.00 91 1017.4
20210926023207 61 0 0.0 0.0 0.00 0.00 0.00 91 1017.4
20210926021707 61 22 0.0 0.0 0.00 0.00 0.00 90 1017.2
20210926020207 62 292 0.0 0.0 0.00 0.00 0.00 88 1017.0
20210926014707 63 292 0.0 0.0 0.00 0.00 0.00 86 1016.9
20210926013207 64 292 0.0 0.0 0.00 0.00 0.00 84 1016.8
20210926011707 65 292 0.0 1.0 0.00 0.00 0.00 81 1016.7
20210926010206 66 292 0.0 1.0 0.00 0.00 0.00 79 1016.6
20210926004707 67 292 0.0 0.0 0.00 0.00 0.00 76 1016.4
20210926003207 68 270 1.0 1.0 0.00 0.00 0.00 73 1016.2
20210926001707 69 270 1.0 1.0 0.00 0.00 0.00 72 1016.2
20210926000208 71 270 2.0 2.0 0.00 0.00 0.00 68 1015.9
20210925234707 72 270 2.0 2.0 0.00 0.00 0.00 66 1016.0
20210925233207 74 292 2.0 2.0 0.00 0.00 0.00 64 1016.0
20210925231707 75 271 2.0 3.0 0.00 0.00 0.00 61 1016.1
20210925230207 76 256 2.0 3.0 0.00 0.00 0.00 58 1015.8
20210925224707 77 315 0.0 3.0 0.00 0.00 0.00 55 1015.8
20210925223207 77 233 2.0 5.0 0.00 0.00 0.00 52 1015.8
20210925221708 78 6 1.0 6.0 0.00 0.00 0.00 52 1015.7
20210925220207 79 267 2.0 8.0 0.00 0.00 0.00 51 1015.7
20210925214707 80 9 4.0 6.0 0.00 0.00 0.00 46 1015.7
20210925213207 80 275 2.0 7.0 0.00 0.00 0.00 48 1015.7
20210925211708 80 105 3.0 6.0 0.00 0.00 0.00 45 1015.9
20210925210207 80 41 5.0 6.0 0.00 0.00 0.00 44 1015.8
20210925204707 81 262 3.0 7.0 0.00 0.00 0.00 46 1015.8
20210925203208 81 24 4.0 6.0 0.00 0.00 0.00 45 1016.0
20210925201706 82 2 2.0 8.0 0.00 0.00 0.00 46 1016.2
20210925200208 82 332 3.0 6.0 0.00 0.00 0.00 46 1016.2
20210925194707 82 70 5.0 7.0 0.00 0.00 0.00 45 1016.5
20210925193207 82 4 4.0 7.0 0.00 0.00 0.00 43 1016.6
20210925191707 82 45 5.0 7.0 0.00 0.00 0.00 43 1016.7
20210925190207 82 292 5.0 10.0 0.00 0.00 0.00 42 1017.0
20210925184707 82 31 4.0 6.0 0.00 0.00 0.00 41 1017.2
20210925183207 82 257 4.0 6.0 0.00 0.00 0.00 42 1017.2
20210925181707 82 356 3.0 7.0 0.00 0.00 0.00 41 1017.4
20210925180207 81 27 3.0 9.0 0.00 0.00 0.00 43 1017.5
20210925174707 80 26 5.0 9.0 0.00 0.00 0.00 43 1017.6
20210925173208 80 49 5.0 8.0 0.00 0.00 0.00 44 1017.8
20210925171706 79 68 6.0 9.0 0.00 0.00 0.00 43 1017.8
20210925170207 79 45 5.0 10.0 0.00 0.00 0.00 45 1018.2
20210925164707 78 93 6.0 8.0 0.00 0.00 0.00 45 1018.1
20210925163207 78 31 6.0 10.0 0.00 0.00 0.00 44 1018.1
20210925161707 78 77 5.0 9.0 0.00 0.00 0.00 45 1018.4
20210925160207 78 315 6.0 8.0 0.00 0.00 0.00 48 1018.6
20210925154706 77 284 5.0 9.0 0.00 0.00 0.00 48 1018.5
20210925153207 76 38 7.0 8.0 0.00 0.00 0.00 53 1018.7
20210925151707 76 29 5.0 9.0 0.00 0.00 0.00 54 1018.8
20210925150207 75 38 6.0 8.0 0.00 0.00 0.00 57 1018.8
20210925144707 75 17 4.0 6.0 0.00 0.00 0.00 58 1019.0
20210925143208 73 0 6.0 6.0 0.00 0.00 0.00 61 1018.8
20210925141706 71 32 4.0 6.0 0.00 0.00 0.00 66 1018.6
20210925140207 69 45 3.0 6.0 0.00 0.00 0.00 69 1018.6
20210925134707 68 52 2.0 6.0 0.00 0.00 0.00 72 1018.5
20210925133207 66 351 4.0 6.0 0.00 0.00 0.00 72 1018.4
20210925131706 65 45 3.0 5.0 0.00 0.00 0.00 75 1018.4
20210925130207 63 36 2.0 2.0 0.00 0.00 0.00 80 1018.5
20210925124707 60 64 2.0 3.0 0.00 0.00 0.00 83 1018.4
20210925123207 58 338 0.0 1.0 0.00 0.00 0.00 90 1018.2
20210925121707 55 338 0.0 1.0 0.00 0.00 0.00 94 1018.3
20210925120207 52 292 0.0 1.0 0.00 0.00 0.00 99 1018.0
20210925114706 52 338 0.0 1.0 0.00 0.00 0.00 99 1017.8
20210925113206 52 270 0.0 1.0 0.00 0.00 0.00 98 1017.9
20210925111707 51 292 0.0 0.0 0.00 0.00 0.00 98 1017.5
20210925110207 51 342 0.0 0.0 0.00 0.00 0.00 98 1017.4
20210925104707 51 90 0.0 0.0 0.00 0.00 0.00 98 1017.2
20210925103207 51 292 0.0 0.0 0.00 0.00 0.00 98 1017.2
20210925101706 52 45 0.0 0.0 0.00 0.00 0.00 98 1017.1
20210925100206 52 315 0.0 0.0 0.00 0.00 0.00 98 1017.1
20210925094707 52 315 0.0 0.0 0.00 0.00 0.00 98 1016.9
20210925093207 53 302 0.0 0.0 0.00 0.00 0.00 98 1017.1
20210925091706 53 292 0.0 2.0 0.00 0.00 0.00 98 1016.9
20210925090206 53 292 1.0 1.0 0.00 0.00 0.00 98 1016.8
20210925084706 53 300 1.0 1.0 0.00 0.00 0.00 97 1016.8
20210925083207 53 0 0.0 0.0 0.00 0.00 0.00 97 1016.7
20210925081708 53 292 0.0 0.0 0.00 0.00 0.00 97 1016.7